Local and Regional Airport Weather



KPVE - Beech River Regional Airport
Distance from station: NW 4mi, 6km
Updated: Sun, Dec-17-2017 3:15pm CST
Mist, Overcast
Mist, Overcast
 Wind from calm
Wind: Calm
Temperature: 46°F , 8°C
Dew Point: 46°F , 8°C
Humidity: 100%
Barometer: 30.09 inHg , 1019 hPa
Summary: Mist
Clouds: Overcast
Visibility: 4 miles , 6 km
Cloud details: Overcast 500 ft
2017/12/17 21:15 KPVE 172115Z AUTO 00000KT 4SM BR OVC005 08/08 A3009 RMK A01
KSNH - Savannah Hardin Co. Airport
Distance from station: S 34mi, 54km
Updated: Sun, Dec-17-2017 3:15pm CST
Mist, Overcast
Mist, Overcast
 Wind from S
Wind: S 3 mph , 6 km/h
Temperature: 48°F , 9°C
Dew Point: 46°F , 8°C
Humidity: 94%
Barometer: 30.09 inHg , 1019 hPa
Summary: Mist
Clouds: Overcast
Visibility: 2 1/2 miles , 4 km
Cloud details: Overcast 400 ft
2017/12/17 21:15 KSNH 172115Z AUTO 17003KT 2 1/2SM BR OVC004 09/08 A3009 RMK A01
 
KMKL - McKellar-Sipes Regional Airport
Distance from station: W 44mi, 72km
Updated: Sun, Dec-17-2017 2:53pm CST
Overcast
Overcast
 Wind from calm
Wind: Calm
Temperature: 48°F , 9°C
Dew Point: 46°F , 8°C
Humidity: 94%
Barometer: 30.09 inHg , 1019 hPa
Clouds: Overcast
Visibility: 10 miles , 16 km
Cloud details: Overcast 600 ft
2017/12/17 20:53 KMKL 172053Z 00000KT 10SM OVC006 09/08 A3009 RMK AO2 SLP191 T00890078 55004
KMSL - NW Alabama Regional Airport
Distance from station: SE 78mi, 126km
Updated: Sun, Dec-17-2017 2:53pm CST
Overcast
Overcast
 Wind from calm
Wind: Calm
Temperature: 50°F , 10°C
Dew Point: 45°F , 7°C
Humidity: 82%
Barometer: 30.11 inHg , 1019.6 hPa
Clouds: Overcast
Visibility: 10 miles , 16 km
Cloud details: Overcast 700 ft
2017/12/17 20:53 KMSL 172053Z AUTO 00000KT 10SM OVC007 10/07 A3011 RMK AO2 SLP198 T01000072 55001
 
KBNA - Nashville International Airport
Distance from station: NE 97mi, 157km
Updated: Sun, Dec-17-2017 3:21pm CST
Mist, Overcast
Mist, Overcast
 Wind from SE
Wind: SE 5 mph , 7 km/h
Temperature: 46°F , 8°C
Wind Chill: 44°F , 7°C
Dew Point: 45°F , 7°C
Humidity: 93%
Barometer: 30.11 inHg , 1019.6 hPa
Summary: Mist
Clouds: Overcast
Visibility: 4 miles , 6 km
Cloud details: Mostly cloudy 700 ft
Overcast 1300 ft
2017/12/17 21:21 KBNA 172121Z 14004KT 4SM BR BKN007 OVC013 08/07 A3011 RMK AO2 T00830067
KMEM - Memphis International Airport
Distance from station: W 108mi, 173km
Updated: Sun, Dec-17-2017 2:54pm CST
Overcast
Overcast
 Wind from SSW
Wind: SSW 3 mph , 6 km/h
Temperature: 48°F , 9°C
Dew Point: 45°F , 7°C
Humidity: 87%
Barometer: 30.07 inHg , 1018.3 hPa
Clouds: Overcast
Visibility: 7 miles , 11 km
Cloud details: Overcast 800 ft
2017/12/17 20:54 KMEM 172054Z 21003KT 7SM OVC008 09/07 A3007 RMK AO2 SLP184 T00890072 56008 $
 
KTYS - Knoxville McGhee Tyson Airport
Distance from station: E 234mi, 377km
Updated: Sun, Dec-17-2017 2:53pm CST
Light rain, Overcast
Light rain, Overcast
 Wind from NNW
Wind: NNW 6 mph , 9 km/h
Temperature: 43°F , 6°C
Wind Chill: 39°F , 4°C
Dew Point: 39°F , 4°C
Humidity: 87%
Barometer: 30.15 inHg , 1021 hPa
Summary: Light rain
Clouds: Overcast
Visibility: 10 miles , 16 km
Cloud details: Partly cloudy 3700 ft
Mostly cloudy 4600 ft
Overcast 7000 ft
2017/12/17 20:53 KTYS 172053Z 33005KT 10SM -RA SCT037 BKN046 OVC070 06/04 A3015 RMK AO2 SLP214 P0000 60003 T00560044 55012
KSTL - St. Louis International Airport
Distance from station: NW 247mi, 398km
Updated: Sun, Dec-17-2017 2:51pm CST
Mostly cloudy
Mostly cloudy
 Wind from S
Wind: S 8 mph , 13 km/h
Temperature: 55°F , 13°C
Dew Point: 39°F , 4°C
Humidity: 55%
Barometer: 29.99 inHg , 1015.6 hPa
Clouds: Mostly cloudy
Visibility: 10 miles , 16 km
Cloud details: Mostly cloudy 4900 ft
Mostly cloudy 6000 ft
2017/12/17 20:51 KSTL 172051Z 18007KT 10SM BKN049 BKN060 13/04 A2999 RMK AO2 SLP158 T01280044 56023

Refresh Page for latest data.